createdAt,value
2022-10-07T00:00:59.812Z,12.50
2022-10-07T00:03:28.454Z,12.40
2022-10-07T00:06:02.607Z,12.40
2022-10-07T00:08:30.285Z,12.40
2022-10-07T00:10:58.031Z,12.30
2022-10-07T00:13:25.143Z,12.30
2022-10-07T00:15:52.218Z,12.30
2022-10-07T00:18:19.313Z,12.30
2022-10-07T00:20:46.457Z,12.20
2022-10-07T00:23:13.576Z,12.20
2022-10-07T00:25:40.629Z,12.20
2022-10-07T00:28:07.846Z,12.20
2022-10-07T00:30:34.963Z,12.20
2022-10-07T00:33:02.037Z,12.20
2022-10-07T00:35:29.091Z,12.10
2022-10-07T00:37:56.016Z,12.10
2022-10-07T00:40:23.012Z,12.10
2022-10-07T00:42:50.006Z,12.10
2022-10-07T00:45:19.585Z,12.00
2022-10-07T00:47:50.292Z,12.00
2022-10-07T00:50:29.605Z,12.00
2022-10-07T00:53:02.459Z,12.00
2022-10-07T00:55:31.611Z,12.00
2022-10-07T00:58:03.580Z,11.90
2022-10-07T01:00:31.473Z,11.90
2022-10-07T01:02:59.483Z,11.90
2022-10-07T01:05:27.045Z,11.90
2022-10-07T01:07:59.094Z,11.80
2022-10-07T01:10:50.477Z,11.80
2022-10-07T01:13:23.064Z,11.80
2022-10-07T01:16:20.496Z,11.80
2022-10-07T01:19:05.209Z,11.80
2022-10-07T01:21:41.133Z,11.70
2022-10-07T01:24:33.501Z,11.70
2022-10-07T01:27:11.827Z,11.70
2022-10-07T01:29:43.612Z,11.70
2022-10-07T01:32:22.238Z,11.60
2022-10-07T01:34:52.020Z,11.60
2022-10-07T01:37:22.248Z,11.60
2022-10-07T01:39:54.353Z,11.60
2022-10-07T01:42:21.903Z,11.50
2022-10-07T01:44:52.588Z,11.50
2022-10-07T01:47:19.657Z,11.40
2022-10-07T01:49:46.618Z,11.40
2022-10-07T01:52:43.872Z,11.40
2022-10-07T01:55:19.772Z,11.40
2022-10-07T01:58:13.522Z,11.40
2022-10-07T02:00:50.458Z,11.40
2022-10-07T02:03:35.987Z,11.40
2022-10-07T02:06:40.681Z,11.30
2022-10-07T02:09:22.887Z,11.30
2022-10-07T02:11:56.923Z,11.20
2022-10-07T02:14:44.772Z,11.30
2022-10-07T02:17:18.317Z,11.20
2022-10-07T02:19:53.603Z,11.20
2022-10-07T02:22:26.165Z,11.20
2022-10-07T02:24:59.333Z,11.20
2022-10-07T02:27:33.863Z,11.20
2022-10-07T02:30:08.556Z,11.20
2022-10-07T02:32:37.891Z,11.20
2022-10-07T02:35:14.174Z,11.20
2022-10-07T02:37:44.403Z,11.10
2022-10-07T02:40:12.620Z,11.10
2022-10-07T02:42:45.363Z,11.10
2022-10-07T02:45:28.473Z,11.20
2022-10-07T02:48:04.401Z,11.10
2022-10-07T02:50:43.203Z,11.10
2022-10-07T02:53:13.766Z,11.10
2022-10-07T02:55:43.627Z,11.10
2022-10-07T02:58:12.799Z,11.10
2022-10-07T03:00:44.778Z,11.10
2022-10-07T03:03:11.904Z,11.10
2022-10-07T03:05:39.284Z,11.10
2022-10-07T03:08:09.620Z,11.20
2022-10-07T03:10:37.503Z,11.20
2022-10-07T03:13:06.197Z,11.20
2022-10-07T03:15:41.930Z,11.20
2022-10-07T03:18:26.657Z,11.20
2022-10-07T03:20:56.017Z,11.20
2022-10-07T03:23:27.270Z,11.20
2022-10-07T03:25:55.894Z,11.20
2022-10-07T03:28:25.123Z,11.20
2022-10-07T03:30:52.880Z,11.20
2022-10-07T03:33:24.386Z,11.20
2022-10-07T03:35:51.456Z,11.20
2022-10-07T03:38:18.373Z,11.20
2022-10-07T03:40:45.762Z,11.20
2022-10-07T03:43:12.796Z,11.10
2022-10-07T03:45:49.769Z,11.10
2022-10-07T03:48:17.382Z,11.10
2022-10-07T03:50:56.801Z,11.10
2022-10-07T03:53:25.994Z,11.10
2022-10-07T03:55:53.467Z,11.10
2022-10-07T03:58:20.564Z,11.00
2022-10-07T04:00:48.254Z,11.00
2022-10-07T04:03:18.853Z,11.00
2022-10-07T04:06:00.175Z,11.00
2022-10-07T04:08:29.261Z,11.00
2022-10-07T04:11:00.170Z,11.00
2022-10-07T04:13:27.342Z,11.00
2022-10-07T04:15:55.679Z,11.00
2022-10-07T04:18:23.389Z,11.00
2022-10-07T04:20:50.430Z,11.00
2022-10-07T04:23:17.583Z,11.00
2022-10-07T04:25:46.012Z,11.00
2022-10-07T04:28:20.391Z,11.00
2022-10-07T04:30:51.626Z,11.00
2022-10-07T04:33:20.815Z,11.00
2022-10-07T04:35:50.342Z,11.00
2022-10-07T04:38:19.020Z,11.00
2022-10-07T04:40:48.554Z,11.00
2022-10-07T04:43:19.531Z,11.10
2022-10-07T04:45:47.903Z,11.10
2022-10-07T04:48:18.157Z,11.10
2022-10-07T04:50:45.871Z,11.10
2022-10-07T04:53:15.102Z,11.10
2022-10-07T04:55:44.419Z,11.20
2022-10-07T04:58:11.634Z,11.20
2022-10-07T05:00:47.492Z,11.20
2022-10-07T05:03:16.753Z,11.20
2022-10-07T05:05:46.336Z,11.20
2022-10-07T05:08:15.008Z,11.20
2022-10-07T05:10:43.506Z,11.30
2022-10-07T05:13:13.035Z,11.20
2022-10-07T05:15:54.704Z,11.30
2022-10-07T05:18:23.088Z,11.30
2022-10-07T05:20:50.714Z,11.30
2022-10-07T05:23:24.342Z,11.30
2022-10-07T05:26:02.193Z,11.40
2022-10-07T05:28:29.581Z,11.50
2022-10-07T05:31:23.043Z,11.50
2022-10-07T05:33:50.211Z,11.60
2022-10-07T05:36:17.271Z,11.60
2022-10-07T05:38:44.624Z,11.60
2022-10-07T05:41:12.999Z,11.70
2022-10-07T05:43:45.209Z,11.70
2022-10-07T05:46:15.433Z,11.80
2022-10-07T05:48:46.514Z,11.80
2022-10-07T05:51:14.380Z,11.90
2022-10-07T05:53:43.333Z,11.90
2022-10-07T05:56:12.886Z,12.00
2022-10-07T05:58:39.888Z,12.10
2022-10-07T06:01:14.190Z,12.10
2022-10-07T06:03:42.509Z,12.20
2022-10-07T06:06:09.964Z,12.30
2022-10-07T06:08:37.858Z,12.40
2022-10-07T06:11:24.897Z,12.40
2022-10-07T06:13:55.442Z,12.50
2022-10-07T06:16:23.564Z,12.60
2022-10-07T06:18:52.751Z,12.70
2022-10-07T06:21:21.680Z,12.70
2022-10-07T06:23:52.240Z,12.80
2022-10-07T06:26:20.236Z,12.90
2022-10-07T06:28:47.428Z,12.90
2022-10-07T06:31:23.737Z,12.90
2022-10-07T06:33:51.395Z,13.00
2022-10-07T06:36:19.034Z,13.10
2022-10-07T06:38:47.693Z,13.10
2022-10-07T06:41:16.132Z,13.10
2022-10-07T06:43:43.516Z,13.10
2022-10-07T06:46:14.555Z,13.20
2022-10-07T06:48:43.153Z,13.20
2022-10-07T06:51:14.385Z,13.20
2022-10-07T06:53:41.678Z,13.30
2022-10-07T06:56:09.374Z,13.40
2022-10-07T06:58:37.084Z,13.40
2022-10-07T07:01:05.623Z,13.50
2022-10-07T07:03:33.103Z,13.60
2022-10-07T07:06:00.143Z,13.60
2022-10-07T07:08:31.200Z,13.60
2022-10-07T07:11:06.282Z,13.70
2022-10-07T07:13:36.282Z,13.70
2022-10-07T07:16:03.338Z,13.80
2022-10-07T07:18:30.352Z,13.80
2022-10-07T07:21:03.186Z,13.90
2022-10-07T07:23:30.247Z,14.10
2022-10-07T07:25:57.251Z,14.30
2022-10-07T07:28:24.271Z,14.50
2022-10-07T07:30:51.388Z,14.80
2022-10-07T07:33:18.389Z,15.00
2022-10-07T07:35:45.473Z,15.20
2022-10-07T07:38:12.476Z,15.30
2022-10-07T07:40:40.141Z,15.40
2022-10-07T07:43:08.904Z,15.60
2022-10-07T07:45:37.261Z,15.70
2022-10-07T07:48:05.188Z,15.80
2022-10-07T07:50:32.290Z,15.80
2022-10-07T07:53:02.327Z,15.80
2022-10-07T07:55:29.357Z,15.90
2022-10-07T07:57:56.754Z,15.90
2022-10-07T08:00:23.842Z,15.90
2022-10-07T08:02:51.009Z,16.10
2022-10-07T08:05:23.478Z,16.20
2022-10-07T08:07:52.800Z,16.20
2022-10-07T08:10:19.808Z,16.20
2022-10-07T08:12:46.930Z,16.30
2022-10-07T08:15:15.475Z,16.30
2022-10-07T08:17:42.724Z,16.30
2022-10-07T08:20:11.193Z,16.30
2022-10-07T08:22:38.192Z,16.30
2022-10-07T08:25:05.867Z,16.30
2022-10-07T08:27:33.838Z,16.40
2022-10-07T08:30:00.879Z,16.50
2022-10-07T08:32:27.958Z,16.50
2022-10-07T08:34:55.026Z,16.60
2022-10-07T08:37:22.036Z,16.60
2022-10-07T08:39:49.070Z,16.60
2022-10-07T08:42:27.960Z,16.60
2022-10-07T08:44:56.565Z,16.70
2022-10-07T08:47:47.512Z,16.70
2022-10-07T08:50:25.671Z,16.80
2022-10-07T08:53:00.286Z,16.80
2022-10-07T08:55:33.405Z,16.90
2022-10-07T08:58:09.324Z,17.00
2022-10-07T09:01:04.071Z,17.00
2022-10-07T09:03:45.991Z,17.10
2022-10-07T09:06:19.766Z,17.20
2022-10-07T09:08:52.556Z,17.20
2022-10-07T09:11:26.135Z,17.30
2022-10-07T09:14:01.539Z,17.40
2022-10-07T09:16:39.096Z,17.40
2022-10-07T09:19:11.712Z,17.50
2022-10-07T09:21:50.575Z,17.60
2022-10-07T09:24:20.709Z,17.60
2022-10-07T09:26:49.116Z,17.70
2022-10-07T09:29:20.946Z,17.80
2022-10-07T09:31:49.641Z,18.00
2022-10-07T09:34:23.528Z,18.10
2022-10-07T09:37:09.296Z,18.20
2022-10-07T09:39:36.391Z,18.40
2022-10-07T09:42:06.953Z,18.50
2022-10-07T09:44:34.951Z,18.60
2022-10-07T09:47:19.465Z,18.70
2022-10-07T09:49:51.941Z,18.80
2022-10-07T09:52:25.987Z,19.00
2022-10-07T09:54:56.368Z,19.10
2022-10-07T09:57:28.819Z,19.20
2022-10-07T10:00:14.129Z,19.30
2022-10-07T10:02:51.085Z,19.30
2022-10-07T10:05:29.596Z,19.40
2022-10-07T10:08:02.661Z,19.40
2022-10-07T10:10:35.368Z,19.50
2022-10-07T10:13:04.817Z,19.50
2022-10-07T10:15:42.920Z,19.60
2022-10-07T10:18:33.662Z,19.70
2022-10-07T10:21:26.566Z,19.70
2022-10-07T10:23:57.470Z,19.70
2022-10-07T10:26:48.157Z,19.90
2022-10-07T10:29:18.247Z,20.00
2022-10-07T10:32:07.718Z,20.10
2022-10-07T10:35:14.131Z,20.30
2022-10-07T10:37:41.124Z,20.30
2022-10-07T10:40:58.919Z,20.40
2022-10-07T10:43:25.903Z,20.50
2022-10-07T10:46:09.001Z,20.60
2022-10-07T10:48:47.715Z,20.70
2022-10-07T10:51:35.193Z,20.80
2022-10-07T10:54:17.985Z,20.80
2022-10-07T10:56:48.614Z,20.90
2022-10-07T10:59:24.270Z,21.00
2022-10-07T11:02:13.122Z,21.00
2022-10-07T11:04:54.346Z,21.00
2022-10-07T11:07:36.980Z,20.90
2022-10-07T11:10:17.436Z,20.90
2022-10-07T11:12:48.753Z,20.90
2022-10-07T11:15:21.778Z,20.90
2022-10-07T11:17:52.003Z,21.00
2022-10-07T11:20:22.085Z,20.90
2022-10-07T11:22:56.829Z,20.90
2022-10-07T11:25:35.130Z,20.90
2022-10-07T11:28:26.249Z,21.00
2022-10-07T11:31:12.267Z,21.00
2022-10-07T11:33:39.240Z,21.00
2022-10-07T11:36:29.710Z,21.10
2022-10-07T11:38:56.711Z,21.20
2022-10-07T11:41:29.690Z,21.30
2022-10-07T11:44:02.378Z,21.40
2022-10-07T11:46:30.079Z,21.40
2022-10-07T11:49:07.065Z,21.50
2022-10-07T11:51:57.819Z,21.50
2022-10-07T11:54:27.992Z,21.60
2022-10-07T11:56:59.539Z,21.60
2022-10-07T11:59:59.943Z,21.60
2022-10-07T12:02:29.913Z,21.70
2022-10-07T12:05:01.912Z,21.80
2022-10-07T12:07:45.228Z,21.80
2022-10-07T12:10:28.674Z,21.70
2022-10-07T12:12:59.691Z,21.70
2022-10-07T12:15:39.844Z,21.70
2022-10-07T12:18:06.851Z,21.70
2022-10-07T12:20:43.058Z,21.80
2022-10-07T12:23:19.831Z,21.80
2022-10-07T12:25:47.896Z,21.80
2022-10-07T12:28:23.762Z,21.80
2022-10-07T12:30:53.979Z,21.80
2022-10-07T12:33:52.288Z,21.90
2022-10-07T12:36:19.720Z,21.80
2022-10-07T12:39:12.636Z,21.90
2022-10-07T12:41:40.915Z,21.90
2022-10-07T12:44:30.509Z,22.10
2022-10-07T12:47:21.106Z,22.20
2022-10-07T12:50:07.211Z,22.20
2022-10-07T12:52:53.427Z,22.10
2022-10-07T12:55:39.157Z,22.10
2022-10-07T12:58:39.225Z,22.10
2022-10-07T13:01:18.321Z,22.20
2022-10-07T13:04:14.440Z,22.30
2022-10-07T13:07:20.526Z,22.30
2022-10-07T13:10:05.927Z,22.40
2022-10-07T13:12:57.232Z,22.50
2022-10-07T13:15:42.929Z,22.60
2022-10-07T13:18:37.637Z,22.50
2022-10-07T13:21:16.561Z,22.60
2022-10-07T13:23:55.381Z,22.60
2022-10-07T13:26:25.145Z,22.60
2022-10-07T13:29:00.818Z,22.60
2022-10-07T13:31:30.708Z,22.60
2022-10-07T13:33:59.933Z,22.60
2022-10-07T13:36:33.118Z,22.50
2022-10-07T13:39:20.609Z,22.50
2022-10-07T13:41:51.307Z,22.50
2022-10-07T13:44:20.799Z,22.50
2022-10-07T13:47:00.284Z,22.60
2022-10-07T13:49:33.843Z,22.60
2022-10-07T13:52:05.162Z,22.70
2022-10-07T13:54:33.988Z,22.70
2022-10-07T13:57:02.587Z,22.70
2022-10-07T13:59:30.134Z,22.70
2022-10-07T14:01:59.053Z,22.70
2022-10-07T14:04:33.538Z,22.80
2022-10-07T14:07:19.606Z,22.80
2022-10-07T14:09:49.876Z,22.70
2022-10-07T14:12:39.539Z,22.70
2022-10-07T14:15:22.506Z,22.80
2022-10-07T14:17:56.018Z,22.80
2022-10-07T14:20:33.192Z,22.70
2022-10-07T14:23:04.678Z,22.70
2022-10-07T14:25:49.641Z,22.60
2022-10-07T14:28:21.175Z,22.50
2022-10-07T14:31:26.736Z,22.50
2022-10-07T14:34:33.901Z,22.50
2022-10-07T14:37:09.761Z,22.40
2022-10-07T14:39:45.502Z,22.30
2022-10-07T14:42:18.121Z,22.30
2022-10-07T14:44:45.406Z,22.20
2022-10-07T14:47:20.485Z,22.20
2022-10-07T14:49:48.540Z,22.10
2022-10-07T14:52:24.075Z,22.10
2022-10-07T14:54:52.947Z,22.10
2022-10-07T14:57:19.937Z,22.00
2022-10-07T14:59:50.290Z,22.00
2022-10-07T15:02:17.702Z,21.90
2022-10-07T15:04:45.966Z,21.80
2022-10-07T15:07:14.969Z,21.80
2022-10-07T15:09:43.671Z,21.70
2022-10-07T15:12:12.984Z,21.70
2022-10-07T15:14:39.968Z,21.60
2022-10-07T15:17:07.370Z,21.50
2022-10-07T15:19:34.844Z,21.50
2022-10-07T15:22:01.825Z,21.40
2022-10-07T15:24:30.382Z,21.40
2022-10-07T15:26:58.163Z,21.40
2022-10-07T15:29:25.225Z,21.30
2022-10-07T15:31:52.869Z,21.20
2022-10-07T15:34:20.112Z,21.10
2022-10-07T15:36:48.238Z,21.00
2022-10-07T15:39:15.790Z,21.00
2022-10-07T15:41:44.279Z,20.90
2022-10-07T15:44:17.122Z,20.80
2022-10-07T15:46:47.919Z,20.70
2022-10-07T15:49:18.910Z,20.50
2022-10-07T15:51:49.429Z,20.50
2022-10-07T15:54:16.941Z,20.30
2022-10-07T15:56:45.340Z,20.30
2022-10-07T15:59:12.467Z,20.20
2022-10-07T16:01:39.557Z,20.20
2022-10-07T16:04:10.738Z,20.10
2022-10-07T16:06:38.900Z,20.00
2022-10-07T16:09:06.461Z,20.00
2022-10-07T16:11:34.745Z,19.90
2022-10-07T16:14:02.616Z,19.80
2022-10-07T16:16:34.031Z,19.70
2022-10-07T16:19:01.318Z,19.60
2022-10-07T16:21:33.911Z,19.60
2022-10-07T16:24:06.776Z,19.50
2022-10-07T16:26:36.013Z,19.40
2022-10-07T16:29:24.009Z,19.30
2022-10-07T16:31:57.966Z,19.30
2022-10-07T16:34:27.717Z,19.20
2022-10-07T16:36:56.095Z,19.20
2022-10-07T16:39:23.155Z,19.10
2022-10-07T16:41:55.148Z,19.00
2022-10-07T16:44:22.564Z,19.00
2022-10-07T16:46:50.369Z,18.90
2022-10-07T16:49:18.556Z,18.90
2022-10-07T16:51:46.825Z,18.80
2022-10-07T16:54:16.514Z,18.80
2022-10-07T16:56:47.149Z,18.70
2022-10-07T16:59:23.015Z,18.70
2022-10-07T17:01:53.178Z,18.60
2022-10-07T17:04:20.559Z,18.60
2022-10-07T17:06:47.663Z,18.60
2022-10-07T17:09:15.548Z,18.50
2022-10-07T17:11:42.788Z,18.50
2022-10-07T17:14:18.223Z,18.40
2022-10-07T17:16:48.346Z,18.40
2022-10-07T17:19:17.926Z,18.30
2022-10-07T17:21:47.873Z,18.30
2022-10-07T17:24:16.218Z,18.20
2022-10-07T17:26:44.798Z,18.10
2022-10-07T17:29:13.325Z,18.10
2022-10-07T17:31:43.627Z,18.00
2022-10-07T17:34:11.979Z,18.00
2022-10-07T17:36:39.750Z,17.90
2022-10-07T17:39:07.775Z,17.90
2022-10-07T17:41:37.622Z,17.80
2022-10-07T17:44:10.613Z,17.80
2022-10-07T17:46:39.455Z,17.80
2022-10-07T17:49:08.902Z,17.70
2022-10-07T17:51:37.672Z,17.70
2022-10-07T17:54:06.531Z,17.60
2022-10-07T17:56:35.063Z,17.60
2022-10-07T17:59:02.994Z,17.50
2022-10-07T18:01:34.274Z,17.50
2022-10-07T18:04:10.879Z,17.50
2022-10-07T18:06:40.111Z,17.40
2022-10-07T18:09:09.337Z,17.40
2022-10-07T18:11:55.980Z,17.30
2022-10-07T18:14:41.811Z,17.30
2022-10-07T18:17:10.443Z,17.30
2022-10-07T18:19:38.024Z,17.20
2022-10-07T18:22:05.358Z,17.20
2022-10-07T18:24:33.214Z,17.10
2022-10-07T18:27:01.999Z,17.10
2022-10-07T18:29:34.534Z,17.10
2022-10-07T18:32:02.264Z,17.00
2022-10-07T18:34:29.685Z,17.00
2022-10-07T18:36:57.439Z,16.90
2022-10-07T18:39:29.936Z,16.90
2022-10-07T18:41:58.800Z,16.90
2022-10-07T18:44:27.016Z,16.90
2022-10-07T18:46:54.760Z,16.90
2022-10-07T18:49:22.452Z,16.90
2022-10-07T18:51:51.273Z,16.80
2022-10-07T18:54:22.919Z,16.80
2022-10-07T18:56:52.283Z,16.80
2022-10-07T18:59:20.770Z,16.70
2022-10-07T19:01:50.960Z,16.70
2022-10-07T19:04:23.398Z,16.70
2022-10-07T19:06:50.842Z,16.60
2022-10-07T19:09:21.980Z,16.60
2022-10-07T19:11:50.784Z,16.60
2022-10-07T19:14:19.171Z,16.50
2022-10-07T19:16:52.374Z,16.50
2022-10-07T19:19:24.620Z,16.50
2022-10-07T19:21:54.391Z,16.50
2022-10-07T19:24:45.325Z,16.40
2022-10-07T19:27:13.309Z,16.40
2022-10-07T19:29:40.372Z,16.40
2022-10-07T19:32:08.829Z,16.30
2022-10-07T19:34:36.913Z,16.30
2022-10-07T19:37:04.620Z,16.30
2022-10-07T19:39:32.555Z,16.30
2022-10-07T19:42:00.282Z,16.20
2022-10-07T19:44:27.401Z,16.20
2022-10-07T19:46:54.715Z,16.20
2022-10-07T19:49:23.073Z,16.20
2022-10-07T19:51:52.222Z,16.20
2022-10-07T19:54:19.877Z,16.20
2022-10-07T19:56:47.401Z,16.10
2022-10-07T19:59:15.162Z,16.10
2022-10-07T20:01:44.166Z,16.10
2022-10-07T20:04:19.482Z,16.00
2022-10-07T20:06:48.092Z,16.00
2022-10-07T20:09:18.901Z,15.90
2022-10-07T20:11:48.925Z,15.90
2022-10-07T20:14:16.501Z,15.90
2022-10-07T20:16:43.873Z,15.80
2022-10-07T20:19:16.569Z,15.80
2022-10-07T20:21:43.589Z,15.80
2022-10-07T20:24:14.642Z,15.70
2022-10-07T20:26:42.924Z,15.70
2022-10-07T20:29:12.000Z,15.60
2022-10-07T20:31:41.255Z,15.60
2022-10-07T20:34:13.277Z,15.60
2022-10-07T20:36:41.616Z,15.60
2022-10-07T20:39:37.230Z,15.60
2022-10-07T20:42:25.820Z,15.50
2022-10-07T20:44:53.708Z,15.50
2022-10-07T20:47:22.857Z,15.50
2022-10-07T20:49:51.700Z,15.40
2022-10-07T20:52:21.492Z,15.40
2022-10-07T20:54:49.705Z,15.40
2022-10-07T20:57:19.573Z,15.40
2022-10-07T20:59:46.588Z,15.30
2022-10-07T21:02:15.859Z,15.30
2022-10-07T21:04:43.065Z,15.30
2022-10-07T21:07:10.428Z,15.20
2022-10-07T21:09:37.431Z,15.20
2022-10-07T21:12:07.736Z,15.20
2022-10-07T21:14:38.013Z,15.20
2022-10-07T21:17:06.576Z,15.10
2022-10-07T21:19:36.248Z,15.10
2022-10-07T21:22:05.135Z,15.10
2022-10-07T21:24:36.289Z,15.00
2022-10-07T21:27:04.917Z,15.00
2022-10-07T21:29:33.205Z,15.00
2022-10-07T21:32:02.137Z,15.00
2022-10-07T21:34:30.489Z,14.90
2022-10-07T21:36:57.810Z,14.90
2022-10-07T21:39:26.372Z,14.80
2022-10-07T21:41:53.564Z,14.80
2022-10-07T21:44:20.887Z,14.80
2022-10-07T21:46:47.973Z,14.70
2022-10-07T21:49:15.730Z,14.70
2022-10-07T21:51:43.329Z,14.60
2022-10-07T21:54:15.423Z,14.60
2022-10-07T21:56:46.216Z,14.50
2022-10-07T21:59:14.352Z,14.50
2022-10-07T22:01:42.772Z,14.40
2022-10-07T22:04:17.294Z,14.40
2022-10-07T22:07:03.347Z,14.40
2022-10-07T22:09:31.810Z,14.30
2022-10-07T22:11:58.828Z,14.30
2022-10-07T22:14:25.923Z,14.20
2022-10-07T22:16:53.350Z,14.20
2022-10-07T22:19:20.284Z,14.10
2022-10-07T22:21:47.254Z,14.10
2022-10-07T22:24:15.022Z,14.00
2022-10-07T22:26:46.140Z,14.00
2022-10-07T22:29:16.749Z,14.00
2022-10-07T22:31:44.409Z,13.90
2022-10-07T22:34:30.301Z,13.90
2022-10-07T22:37:00.097Z,13.90
2022-10-07T22:39:28.876Z,13.80
2022-10-07T22:41:56.823Z,13.80
2022-10-07T22:44:25.431Z,13.70
2022-10-07T22:46:53.225Z,13.70
2022-10-07T22:49:20.291Z,13.60
2022-10-07T22:51:47.476Z,13.60
2022-10-07T22:54:14.996Z,13.50
2022-10-07T22:56:42.119Z,13.50
2022-10-07T22:59:09.140Z,13.50
2022-10-07T23:01:36.731Z,13.40
2022-10-07T23:04:04.930Z,13.40
2022-10-07T23:06:35.020Z,13.40
2022-10-07T23:09:03.995Z,13.40
2022-10-07T23:11:31.419Z,13.30
2022-10-07T23:13:58.568Z,13.30
2022-10-07T23:16:29.720Z,13.20
2022-10-07T23:18:58.901Z,13.20
2022-10-07T23:21:29.231Z,13.10
2022-10-07T23:24:05.923Z,13.10
2022-10-07T23:26:34.453Z,13.10
2022-10-07T23:29:04.950Z,13.00
2022-10-07T23:31:32.854Z,13.00
2022-10-07T23:34:01.413Z,13.00
2022-10-07T23:36:29.497Z,12.90
2022-10-07T23:38:58.236Z,12.90
2022-10-07T23:41:27.565Z,12.90
2022-10-07T23:43:57.208Z,12.80
2022-10-07T23:46:26.596Z,12.80
2022-10-07T23:48:54.653Z,12.80
2022-10-07T23:51:24.901Z,12.80
2022-10-07T23:53:52.166Z,12.80
2022-10-07T23:56:19.220Z,12.80
2022-10-07T23:58:46.440Z,12.80
